sensor_id;sensor_type;location;lat;lon;timestamp;temperature;humidity
13458;DHT22;6801;53.018;11.560;2023-02-28T00:00:00;0.90;77.30
13458;DHT22;6801;53.018;11.560;2023-02-28T00:02:35;0.90;77.30
13458;DHT22;6801;53.018;11.560;2023-02-28T00:05:03;0.90;77.40
13458;DHT22;6801;53.018;11.560;2023-02-28T00:07:30;0.80;77.30
13458;DHT22;6801;53.018;11.560;2023-02-28T00:09:58;0.80;77.40
13458;DHT22;6801;53.018;11.560;2023-02-28T00:12:26;0.80;77.40
13458;DHT22;6801;53.018;11.560;2023-02-28T00:14:54;0.80;77.40
13458;DHT22;6801;53.018;11.560;2023-02-28T00:17:21;0.70;77.40
13458;DHT22;6801;53.018;11.560;2023-02-28T00:19:50;0.70;77.40
13458;DHT22;6801;53.018;11.560;2023-02-28T00:22:18;0.70;77.40
13458;DHT22;6801;53.018;11.560;2023-02-28T00:24:46;0.70;77.50
13458;DHT22;6801;53.018;11.560;2023-02-28T00:27:14;0.60;77.50
13458;DHT22;6801;53.018;11.560;2023-02-28T00:29:41;0.60;77.50
13458;DHT22;6801;53.018;11.560;2023-02-28T00:32:11;0.60;77.50
13458;DHT22;6801;53.018;11.560;2023-02-28T00:34:38;0.60;77.60
13458;DHT22;6801;53.018;11.560;2023-02-28T00:37:09;0.50;77.60
13458;DHT22;6801;53.018;11.560;2023-02-28T00:39:38;0.50;77.50
13458;DHT22;6801;53.018;11.560;2023-02-28T00:42:06;0.50;77.60
13458;DHT22;6801;53.018;11.560;2023-02-28T00:44:33;0.50;77.60
13458;DHT22;6801;53.018;11.560;2023-02-28T00:47:01;0.40;77.60
13458;DHT22;6801;53.018;11.560;2023-02-28T00:49:29;0.40;77.60
13458;DHT22;6801;53.018;11.560;2023-02-28T00:51:56;0.40;77.60
13458;DHT22;6801;53.018;11.560;2023-02-28T00:54:25;0.40;77.60
13458;DHT22;6801;53.018;11.560;2023-02-28T00:56:53;0.40;77.60
13458;DHT22;6801;53.018;11.560;2023-02-28T00:59:20;0.30;77.60
13458;DHT22;6801;53.018;11.560;2023-02-28T01:01:47;0.30;77.60
13458;DHT22;6801;53.018;11.560;2023-02-28T01:04:14;0.30;77.60
13458;DHT22;6801;53.018;11.560;2023-02-28T01:06:42;0.30;77.60
13458;DHT22;6801;53.018;11.560;2023-02-28T01:09:10;0.30;77.60
13458;DHT22;6801;53.018;11.560;2023-02-28T01:11:37;0.20;77.60
13458;DHT22;6801;53.018;11.560;2023-02-28T01:14:05;0.20;77.60
13458;DHT22;6801;53.018;11.560;2023-02-28T01:16:31;0.20;77.70
13458;DHT22;6801;53.018;11.560;2023-02-28T01:18:58;0.10;77.70
13458;DHT22;6801;53.018;11.560;2023-02-28T01:21:25;0.10;77.70
13458;DHT22;6801;53.018;11.560;2023-02-28T01:23:56;0.10;77.70
13458;DHT22;6801;53.018;11.560;2023-02-28T01:26:23;0.10;77.70
13458;DHT22;6801;53.018;11.560;2023-02-28T01:28:51;0.10;77.70
13458;DHT22;6801;53.018;11.560;2023-02-28T01:31:20;0.00;77.70
13458;DHT22;6801;53.018;11.560;2023-02-28T01:33:48;0.00;77.80
13458;DHT22;6801;53.018;11.560;2023-02-28T01:36:17;0.00;77.80
13458;DHT22;6801;53.018;11.560;2023-02-28T01:38:45;0.00;77.80
13458;DHT22;6801;53.018;11.560;2023-02-28T01:41:17;0.00;77.80
13458;DHT22;6801;53.018;11.560;2023-02-28T01:43:59;0.00;77.90
13458;DHT22;6801;53.018;11.560;2023-02-28T01:46:29;0.00;77.80
13458;DHT22;6801;53.018;11.560;2023-02-28T01:49:02;0.00;77.80
13458;DHT22;6801;53.018;11.560;2023-02-28T01:51:34;0.00;77.80
13458;DHT22;6801;53.018;11.560;2023-02-28T01:54:05;-3276.70;77.80
13458;DHT22;6801;53.018;11.560;2023-02-28T01:56:43;-3276.70;77.90
13458;DHT22;6801;53.018;11.560;2023-02-28T01:59:13;-3276.70;77.90
13458;DHT22;6801;53.018;11.560;2023-02-28T02:01:41;-3276.70;77.90
13458;DHT22;6801;53.018;11.560;2023-02-28T02:04:08;-3276.60;77.90
13458;DHT22;6801;53.018;11.560;2023-02-28T02:06:38;-3276.60;77.90
13458;DHT22;6801;53.018;11.560;2023-02-28T02:09:09;-3276.60;77.90
13458;DHT22;6801;53.018;11.560;2023-02-28T02:11:37;-3276.60;77.90
13458;DHT22;6801;53.018;11.560;2023-02-28T02:14:32;-3276.60;78.00
13458;DHT22;6801;53.018;11.560;2023-02-28T02:17:11;-3276.50;78.00
13458;DHT22;6801;53.018;11.560;2023-02-28T02:23:02;-3276.40;78.00
13458;DHT22;6801;53.018;11.560;2023-02-28T02:25:36;-3276.40;78.00
13458;DHT22;6801;53.018;11.560;2023-02-28T02:28:40;-3276.50;78.00
13458;DHT22;6801;53.018;11.560;2023-02-28T02:31:30;-3276.40;78.00
13458;DHT22;6801;53.018;11.560;2023-02-28T02:34:35;-3276.40;78.00
13458;DHT22;6801;53.018;11.560;2023-02-28T02:37:14;-3276.30;78.00
13458;DHT22;6801;53.018;11.560;2023-02-28T02:39:50;-3276.30;78.10
13458;DHT22;6801;53.018;11.560;2023-02-28T02:42:23;-3276.30;78.10
13458;DHT22;6801;53.018;11.560;2023-02-28T02:44:58;-3276.30;78.10
13458;DHT22;6801;53.018;11.560;2023-02-28T02:47:28;-3276.30;78.10
13458;DHT22;6801;53.018;11.560;2023-02-28T02:50:01;-3276.30;78.10
13458;DHT22;6801;53.018;11.560;2023-02-28T02:52:34;-3276.20;78.10
13458;DHT22;6801;53.018;11.560;2023-02-28T02:55:06;-3276.20;78.10
13458;DHT22;6801;53.018;11.560;2023-02-28T02:57:40;-3276.20;78.10
13458;DHT22;6801;53.018;11.560;2023-02-28T03:00:10;-3276.20;78.10
13458;DHT22;6801;53.018;11.560;2023-02-28T03:02:38;-3276.20;78.10
13458;DHT22;6801;53.018;11.560;2023-02-28T03:05:12;-3276.20;78.00
13458;DHT22;6801;53.018;11.560;2023-02-28T03:07:41;-3276.20;78.10
13458;DHT22;6801;53.018;11.560;2023-02-28T03:10:30;-3276.10;78.10
13458;DHT22;6801;53.018;11.560;2023-02-28T03:16:07;-3276.10;78.10
13458;DHT22;6801;53.018;11.560;2023-02-28T03:18:43;-3276.10;78.10
13458;DHT22;6801;53.018;11.560;2023-02-28T03:21:23;-3276.00;78.10
13458;DHT22;6801;53.018;11.560;2023-02-28T03:23:59;-3276.00;78.10
13458;DHT22;6801;53.018;11.560;2023-02-28T03:26:29;-3276.00;78.10
13458;DHT22;6801;53.018;11.560;2023-02-28T03:29:02;-3276.00;78.10
13458;DHT22;6801;53.018;11.560;2023-02-28T03:31:35;-3276.00;78.10
13458;DHT22;6801;53.018;11.560;2023-02-28T03:34:08;-3276.00;78.10
13458;DHT22;6801;53.018;11.560;2023-02-28T03:36:39;-3275.90;78.10
13458;DHT22;6801;53.018;11.560;2023-02-28T03:39:12;-3275.90;78.10
13458;DHT22;6801;53.018;11.560;2023-02-28T03:41:43;-3275.90;78.10
13458;DHT22;6801;53.018;11.560;2023-02-28T03:44:16;-3275.90;78.10
13458;DHT22;6801;53.018;11.560;2023-02-28T03:46:46;-3275.90;78.10
13458;DHT22;6801;53.018;11.560;2023-02-28T03:49:17;-3275.90;78.10
13458;DHT22;6801;53.018;11.560;2023-02-28T03:51:47;-3275.90;78.10
13458;DHT22;6801;53.018;11.560;2023-02-28T03:54:18;-3275.80;78.10
13458;DHT22;6801;53.018;11.560;2023-02-28T03:56:50;-3275.80;78.10
13458;DHT22;6801;53.018;11.560;2023-02-28T03:59:24;-3275.80;78.10
13458;DHT22;6801;53.018;11.560;2023-02-28T04:01:52;-3275.80;78.10
13458;DHT22;6801;53.018;11.560;2023-02-28T04:04:21;-3275.80;78.10
13458;DHT22;6801;53.018;11.560;2023-02-28T04:06:51;-3275.70;78.10
13458;DHT22;6801;53.018;11.560;2023-02-28T04:09:18;-3275.70;78.10
13458;DHT22;6801;53.018;11.560;2023-02-28T04:11:48;-3275.70;78.10
13458;DHT22;6801;53.018;11.560;2023-02-28T04:14:17;-3275.70;78.00
13458;DHT22;6801;53.018;11.560;2023-02-28T04:16:45;-3275.70;78.00
13458;DHT22;6801;53.018;11.560;2023-02-28T04:19:12;-3275.70;78.00
13458;DHT22;6801;53.018;11.560;2023-02-28T04:21:41;-3275.70;78.10
13458;DHT22;6801;53.018;11.560;2023-02-28T04:24:11;-3275.70;78.10
13458;DHT22;6801;53.018;11.560;2023-02-28T04:26:41;-3275.70;78.00
13458;DHT22;6801;53.018;11.560;2023-02-28T04:29:10;-3275.60;78.00
13458;DHT22;6801;53.018;11.560;2023-02-28T04:31:38;-3275.70;78.10
13458;DHT22;6801;53.018;11.560;2023-02-28T04:34:05;-3275.60;78.10
13458;DHT22;6801;53.018;11.560;2023-02-28T04:36:32;-3275.60;78.00
13458;DHT22;6801;53.018;11.560;2023-02-28T04:38:59;-3275.60;78.00
13458;DHT22;6801;53.018;11.560;2023-02-28T04:41:28;-3275.60;78.00
13458;DHT22;6801;53.018;11.560;2023-02-28T04:43:55;-3275.60;78.00
13458;DHT22;6801;53.018;11.560;2023-02-28T04:46:23;-3275.60;78.00
13458;DHT22;6801;53.018;11.560;2023-02-28T04:48:50;-3275.60;78.00
13458;DHT22;6801;53.018;11.560;2023-02-28T04:51:18;-3275.50;78.00
13458;DHT22;6801;53.018;11.560;2023-02-28T04:53:46;-3275.50;78.00
13458;DHT22;6801;53.018;11.560;2023-02-28T04:56:15;-3275.50;78.00
13458;DHT22;6801;53.018;11.560;2023-02-28T04:58:44;-3275.50;77.90
13458;DHT22;6801;53.018;11.560;2023-02-28T05:01:22;-3275.50;77.90
13458;DHT22;6801;53.018;11.560;2023-02-28T05:03:50;-3275.40;78.00
13458;DHT22;6801;53.018;11.560;2023-02-28T05:06:18;-3275.40;78.00
13458;DHT22;6801;53.018;11.560;2023-02-28T05:08:46;-3275.40;78.00
13458;DHT22;6801;53.018;11.560;2023-02-28T05:11:16;-3275.40;78.00
13458;DHT22;6801;53.018;11.560;2023-02-28T05:13:45;-3275.40;78.00
13458;DHT22;6801;53.018;11.560;2023-02-28T05:16:13;-3275.40;78.00
13458;DHT22;6801;53.018;11.560;2023-02-28T05:18:40;-3275.40;78.00
13458;DHT22;6801;53.018;11.560;2023-02-28T05:21:22;-3275.40;77.90
13458;DHT22;6801;53.018;11.560;2023-02-28T05:23:50;-3275.40;77.90
13458;DHT22;6801;53.018;11.560;2023-02-28T05:26:17;-3275.30;77.90
13458;DHT22;6801;53.018;11.560;2023-02-28T05:28:46;-3275.40;78.00
13458;DHT22;6801;53.018;11.560;2023-02-28T05:31:13;-3275.30;78.00
13458;DHT22;6801;53.018;11.560;2023-02-28T05:33:40;-3275.30;77.80
13458;DHT22;6801;53.018;11.560;2023-02-28T05:36:08;-3275.30;77.90
13458;DHT22;6801;53.018;11.560;2023-02-28T05:38:35;-3275.30;77.90
13458;DHT22;6801;53.018;11.560;2023-02-28T05:41:05;-3275.30;77.90
13458;DHT22;6801;53.018;11.560;2023-02-28T05:43:32;-3275.30;77.90
13458;DHT22;6801;53.018;11.560;2023-02-28T05:46:02;-3275.20;77.90
13458;DHT22;6801;53.018;11.560;2023-02-28T05:48:29;-3275.20;77.90
13458;DHT22;6801;53.018;11.560;2023-02-28T05:50:57;-3275.20;77.90
13458;DHT22;6801;53.018;11.560;2023-02-28T05:53:24;-3275.20;77.90
13458;DHT22;6801;53.018;11.560;2023-02-28T05:55:51;-3275.20;77.90
13458;DHT22;6801;53.018;11.560;2023-02-28T05:58:18;-3275.20;77.90
13458;DHT22;6801;53.018;11.560;2023-02-28T06:00:45;-3275.20;77.90
13458;DHT22;6801;53.018;11.560;2023-02-28T06:03:14;-3275.20;77.90
13458;DHT22;6801;53.018;11.560;2023-02-28T06:05:41;-3275.20;77.90
13458;DHT22;6801;53.018;11.560;2023-02-28T06:08:07;-3275.20;77.90
13458;DHT22;6801;53.018;11.560;2023-02-28T06:10:35;-3275.20;77.90
13458;DHT22;6801;53.018;11.560;2023-02-28T06:13:02;-3275.10;77.90
13458;DHT22;6801;53.018;11.560;2023-02-28T06:15:29;-3275.20;77.90
13458;DHT22;6801;53.018;11.560;2023-02-28T06:17:56;-3275.10;77.90
13458;DHT22;6801;53.018;11.560;2023-02-28T06:20:26;-3275.10;77.90
13458;DHT22;6801;53.018;11.560;2023-02-28T06:22:58;-3275.10;77.80
13458;DHT22;6801;53.018;11.560;2023-02-28T06:25:26;-3275.10;77.80
13458;DHT22;6801;53.018;11.560;2023-02-28T06:27:54;-3275.10;77.80
13458;DHT22;6801;53.018;11.560;2023-02-28T06:30:21;-3275.10;77.80
13458;DHT22;6801;53.018;11.560;2023-02-28T06:32:51;-3275.10;77.80
13458;DHT22;6801;53.018;11.560;2023-02-28T06:35:18;-3275.10;77.80
13458;DHT22;6801;53.018;11.560;2023-02-28T06:37:47;-3275.10;77.80
13458;DHT22;6801;53.018;11.560;2023-02-28T06:40:14;-3275.10;77.90
13458;DHT22;6801;53.018;11.560;2023-02-28T06:42:42;-3275.10;77.90
13458;DHT22;6801;53.018;11.560;2023-02-28T06:45:10;-3275.10;77.90
13458;DHT22;6801;53.018;11.560;2023-02-28T06:47:37;-3275.10;77.90
13458;DHT22;6801;53.018;11.560;2023-02-28T06:50:06;-3275.20;77.90
13458;DHT22;6801;53.018;11.560;2023-02-28T06:52:33;-3275.20;77.80
13458;DHT22;6801;53.018;11.560;2023-02-28T06:55:04;-3275.20;77.80
13458;DHT22;6801;53.018;11.560;2023-02-28T06:57:32;-3275.20;77.80
13458;DHT22;6801;53.018;11.560;2023-02-28T07:00:01;-3275.20;77.90
13458;DHT22;6801;53.018;11.560;2023-02-28T07:02:28;-3275.20;77.90
13458;DHT22;6801;53.018;11.560;2023-02-28T07:04:55;-3275.30;77.90
13458;DHT22;6801;53.018;11.560;2023-02-28T07:07:22;-3275.30;77.90
13458;DHT22;6801;53.018;11.560;2023-02-28T07:09:49;-3275.30;77.90
13458;DHT22;6801;53.018;11.560;2023-02-28T07:12:17;-3275.30;77.90
13458;DHT22;6801;53.018;11.560;2023-02-28T07:14:44;-3275.30;77.90
13458;DHT22;6801;53.018;11.560;2023-02-28T07:17:11;-3275.30;77.80
13458;DHT22;6801;53.018;11.560;2023-02-28T07:19:38;-3275.30;77.80
13458;DHT22;6801;53.018;11.560;2023-02-28T07:22:05;-3275.40;77.80
13458;DHT22;6801;53.018;11.560;2023-02-28T07:24:32;-3275.40;77.80
13458;DHT22;6801;53.018;11.560;2023-02-28T07:26:59;-3275.40;77.70
13458;DHT22;6801;53.018;11.560;2023-02-28T07:29:28;-3275.40;77.70
13458;DHT22;6801;53.018;11.560;2023-02-28T07:31:55;-3275.50;77.70
13458;DHT22;6801;53.018;11.560;2023-02-28T07:34:23;-3275.50;77.70
13458;DHT22;6801;53.018;11.560;2023-02-28T07:36:52;-3275.60;77.70
13458;DHT22;6801;53.018;11.560;2023-02-28T07:39:20;-3275.60;77.70
13458;DHT22;6801;53.018;11.560;2023-02-28T07:41:47;-3275.60;77.70
13458;DHT22;6801;53.018;11.560;2023-02-28T07:44:15;-3275.70;77.70
13458;DHT22;6801;53.018;11.560;2023-02-28T07:46:43;-3275.70;77.70
13458;DHT22;6801;53.018;11.560;2023-02-28T07:49:10;-3275.80;77.80
13458;DHT22;6801;53.018;11.560;2023-02-28T07:51:37;-3275.80;77.80
13458;DHT22;6801;53.018;11.560;2023-02-28T07:54:04;-3275.90;77.80
13458;DHT22;6801;53.018;11.560;2023-02-28T07:56:31;-3275.90;77.90
13458;DHT22;6801;53.018;11.560;2023-02-28T07:58:58;-3275.90;77.90
13458;DHT22;6801;53.018;11.560;2023-02-28T08:01:26;-3276.00;78.00
13458;DHT22;6801;53.018;11.560;2023-02-28T08:03:54;-3276.00;78.00
13458;DHT22;6801;53.018;11.560;2023-02-28T08:06:24;-3276.20;78.10
13458;DHT22;6801;53.018;11.560;2023-02-28T08:08:52;-3276.20;78.00
13458;DHT22;6801;53.018;11.560;2023-02-28T08:11:19;-3276.20;78.00
13458;DHT22;6801;53.018;11.560;2023-02-28T08:13:46;-3276.30;78.10
13458;DHT22;6801;53.018;11.560;2023-02-28T08:16:14;-3276.40;78.10
13458;DHT22;6801;53.018;11.560;2023-02-28T08:18:43;-3276.40;78.00
13458;DHT22;6801;53.018;11.560;2023-02-28T08:21:11;-3276.50;78.10
13458;DHT22;6801;53.018;11.560;2023-02-28T08:23:38;-3276.50;78.10
13458;DHT22;6801;53.018;11.560;2023-02-28T08:26:05;-3276.60;78.10
13458;DHT22;6801;53.018;11.560;2023-02-28T08:28:32;-3276.70;78.10
13458;DHT22;6801;53.018;11.560;2023-02-28T08:31:00;0.00;78.20
13458;DHT22;6801;53.018;11.560;2023-02-28T08:33:27;0.00;78.30
13458;DHT22;6801;53.018;11.560;2023-02-28T08:35:54;0.00;78.30
13458;DHT22;6801;53.018;11.560;2023-02-28T08:38:23;0.10;78.40
13458;DHT22;6801;53.018;11.560;2023-02-28T08:40:53;0.10;78.40
13458;DHT22;6801;53.018;11.560;2023-02-28T08:43:23;0.20;78.40
13458;DHT22;6801;53.018;11.560;2023-02-28T08:45:51;0.30;78.40
13458;DHT22;6801;53.018;11.560;2023-02-28T08:48:18;0.40;78.40
13458;DHT22;6801;53.018;11.560;2023-02-28T08:50:54;0.50;78.40
13458;DHT22;6801;53.018;11.560;2023-02-28T08:53:23;0.50;78.40
13458;DHT22;6801;53.018;11.560;2023-02-28T08:55:56;0.60;78.50
13458;DHT22;6801;53.018;11.560;2023-02-28T08:58:23;0.70;78.40
13458;DHT22;6801;53.018;11.560;2023-02-28T09:00:51;0.80;78.40
13458;DHT22;6801;53.018;11.560;2023-02-28T09:03:17;0.90;78.40
13458;DHT22;6801;53.018;11.560;2023-02-28T09:05:52;1.00;78.40
13458;DHT22;6801;53.018;11.560;2023-02-28T09:08:19;1.10;78.50
13458;DHT22;6801;53.018;11.560;2023-02-28T09:10:47;1.10;78.40
13458;DHT22;6801;53.018;11.560;2023-02-28T09:13:14;1.30;78.50
13458;DHT22;6801;53.018;11.560;2023-02-28T09:15:41;1.30;78.40
13458;DHT22;6801;53.018;11.560;2023-02-28T09:18:08;1.40;78.30
13458;DHT22;6801;53.018;11.560;2023-02-28T09:20:37;1.50;78.20
13458;DHT22;6801;53.018;11.560;2023-02-28T09:23:05;1.60;78.10
13458;DHT22;6801;53.018;11.560;2023-02-28T09:25:32;1.70;78.10
13458;DHT22;6801;53.018;11.560;2023-02-28T09:28:00;1.80;78.00
13458;DHT22;6801;53.018;11.560;2023-02-28T09:30:28;1.90;77.90
13458;DHT22;6801;53.018;11.560;2023-02-28T09:32:54;2.00;77.80
13458;DHT22;6801;53.018;11.560;2023-02-28T09:35:22;2.00;77.70
13458;DHT22;6801;53.018;11.560;2023-02-28T09:37:50;2.10;77.80
13458;DHT22;6801;53.018;11.560;2023-02-28T09:40:19;2.20;77.60
13458;DHT22;6801;53.018;11.560;2023-02-28T09:42:48;2.30;77.60
13458;DHT22;6801;53.018;11.560;2023-02-28T09:45:22;2.30;77.50
13458;DHT22;6801;53.018;11.560;2023-02-28T09:47:51;2.40;77.40
13458;DHT22;6801;53.018;11.560;2023-02-28T09:50:29;2.50;77.40
13458;DHT22;6801;53.018;11.560;2023-02-28T09:52:59;2.60;77.40
13458;DHT22;6801;53.018;11.560;2023-02-28T09:55:31;2.70;77.30
13458;DHT22;6801;53.018;11.560;2023-02-28T09:58:00;2.80;77.30
13458;DHT22;6801;53.018;11.560;2023-02-28T10:00:33;2.80;77.20
13458;DHT22;6801;53.018;11.560;2023-02-28T10:03:25;2.90;77.20
13458;DHT22;6801;53.018;11.560;2023-02-28T10:05:58;3.00;77.10
13458;DHT22;6801;53.018;11.560;2023-02-28T10:08:31;3.10;77.10
13458;DHT22;6801;53.018;11.560;2023-02-28T10:11:02;3.10;77.00
13458;DHT22;6801;53.018;11.560;2023-02-28T10:13:35;3.20;77.00
13458;DHT22;6801;53.018;11.560;2023-02-28T10:16:06;3.30;76.90
13458;DHT22;6801;53.018;11.560;2023-02-28T10:18:41;3.30;76.90
13458;DHT22;6801;53.018;11.560;2023-02-28T10:21:17;3.40;76.80
13458;DHT22;6801;53.018;11.560;2023-02-28T10:23:46;3.50;76.80
13458;DHT22;6801;53.018;11.560;2023-02-28T10:26:17;3.60;76.70
13458;DHT22;6801;53.018;11.560;2023-02-28T10:28:44;3.70;76.70
13458;DHT22;6801;53.018;11.560;2023-02-28T10:31:17;3.80;76.60
13458;DHT22;6801;53.018;11.560;2023-02-28T10:33:44;3.80;76.40
13458;DHT22;6801;53.018;11.560;2023-02-28T10:36:14;4.00;76.40
13458;DHT22;6801;53.018;11.560;2023-02-28T10:38:44;4.00;76.10
13458;DHT22;6801;53.018;11.560;2023-02-28T10:41:14;4.10;75.90
13458;DHT22;6801;53.018;11.560;2023-02-28T10:43:42;4.10;75.80
13458;DHT22;6801;53.018;11.560;2023-02-28T10:46:15;4.20;75.70
13458;DHT22;6801;53.018;11.560;2023-02-28T10:49:01;4.30;75.70
13458;DHT22;6801;53.018;11.560;2023-02-28T10:51:34;4.40;75.50
13458;DHT22;6801;53.018;11.560;2023-02-28T10:54:03;4.50;75.30
13458;DHT22;6801;53.018;11.560;2023-02-28T10:56:30;4.50;75.00
13458;DHT22;6801;53.018;11.560;2023-02-28T10:58:59;4.60;75.00
13458;DHT22;6801;53.018;11.560;2023-02-28T11:01:37;4.70;74.90
13458;DHT22;6801;53.018;11.560;2023-02-28T11:04:16;4.80;74.50
13458;DHT22;6801;53.018;11.560;2023-02-28T11:06:45;4.80;74.00
13458;DHT22;6801;53.018;11.560;2023-02-28T11:09:20;4.90;74.10
13458;DHT22;6801;53.018;11.560;2023-02-28T11:11:49;5.00;73.90
13458;DHT22;6801;53.018;11.560;2023-02-28T11:14:20;5.10;73.30
13458;DHT22;6801;53.018;11.560;2023-02-28T11:16:50;5.20;73.00
13458;DHT22;6801;53.018;11.560;2023-02-28T11:19:20;5.20;72.90
13458;DHT22;6801;53.018;11.560;2023-02-28T11:21:53;5.20;73.10
13458;DHT22;6801;53.018;11.560;2023-02-28T11:24:24;5.20;73.30
13458;DHT22;6801;53.018;11.560;2023-02-28T11:26:52;5.30;73.40
13458;DHT22;6801;53.018;11.560;2023-02-28T11:29:22;5.30;73.80
13458;DHT22;6801;53.018;11.560;2023-02-28T11:32:19;5.30;73.80
13458;DHT22;6801;53.018;11.560;2023-02-28T11:35:00;5.50;73.30
13458;DHT22;6801;53.018;11.560;2023-02-28T11:37:28;5.50;73.20
13458;DHT22;6801;53.018;11.560;2023-02-28T11:39:55;5.60;73.00
13458;DHT22;6801;53.018;11.560;2023-02-28T11:42:31;5.70;73.20
13458;DHT22;6801;53.018;11.560;2023-02-28T11:45:14;5.70;72.50
13458;DHT22;6801;53.018;11.560;2023-02-28T11:47:48;5.80;72.80
13458;DHT22;6801;53.018;11.560;2023-02-28T11:50:26;5.80;72.80
13458;DHT22;6801;53.018;11.560;2023-02-28T11:53:01;5.90;72.60
13458;DHT22;6801;53.018;11.560;2023-02-28T11:55:32;6.00;72.50
13458;DHT22;6801;53.018;11.560;2023-02-28T11:58:23;6.00;72.40
13458;DHT22;6801;53.018;11.560;2023-02-28T12:01:06;6.20;70.60
13458;DHT22;6801;53.018;11.560;2023-02-28T12:03:43;6.20;71.00
13458;DHT22;6801;53.018;11.560;2023-02-28T12:06:18;6.30;71.10
13458;DHT22;6801;53.018;11.560;2023-02-28T12:08:58;6.20;71.50
13458;DHT22;6801;53.018;11.560;2023-02-28T12:11:29;6.30;71.90
13458;DHT22;6801;53.018;11.560;2023-02-28T12:14:10;6.30;72.10
13458;DHT22;6801;53.018;11.560;2023-02-28T12:16:48;6.40;72.70
13458;DHT22;6801;53.018;11.560;2023-02-28T12:19:20;6.50;72.90
13458;DHT22;6801;53.018;11.560;2023-02-28T12:22:05;6.50;72.60
13458;DHT22;6801;53.018;11.560;2023-02-28T12:27:37;6.70;70.90
13458;DHT22;6801;53.018;11.560;2023-02-28T12:30:14;6.80;71.10
13458;DHT22;6801;53.018;11.560;2023-02-28T12:32:46;6.90;71.30
13458;DHT22;6801;53.018;11.560;2023-02-28T12:35:19;7.00;69.30
13458;DHT22;6801;53.018;11.560;2023-02-28T12:37:54;7.00;69.50
13458;DHT22;6801;53.018;11.560;2023-02-28T12:40:25;7.10;68.30
13458;DHT22;6801;53.018;11.560;2023-02-28T12:42:58;7.20;68.30
13458;DHT22;6801;53.018;11.560;2023-02-28T12:45:31;7.20;68.80
13458;DHT22;6801;53.018;11.560;2023-02-28T12:48:04;7.30;69.70
13458;DHT22;6801;53.018;11.560;2023-02-28T12:50:34;7.30;69.90
13458;DHT22;6801;53.018;11.560;2023-02-28T12:53:04;7.40;71.50
13458;DHT22;6801;53.018;11.560;2023-02-28T12:55:38;7.40;70.60
13458;DHT22;6801;53.018;11.560;2023-02-28T12:58:12;7.50;69.80
13458;DHT22;6801;53.018;11.560;2023-02-28T13:00:52;7.50;69.30
13458;DHT22;6801;53.018;11.560;2023-02-28T13:03:45;7.60;69.30
13458;DHT22;6801;53.018;11.560;2023-02-28T13:06:34;7.70;68.90
13458;DHT22;6801;53.018;11.560;2023-02-28T13:09:09;7.70;68.50
13458;DHT22;6801;53.018;11.560;2023-02-28T13:11:41;7.80;69.20
13458;DHT22;6801;53.018;11.560;2023-02-28T13:14:27;7.70;69.30
13458;DHT22;6801;53.018;11.560;2023-02-28T13:17:01;7.80;69.30
13458;DHT22;6801;53.018;11.560;2023-02-28T13:19:31;7.90;70.50
13458;DHT22;6801;53.018;11.560;2023-02-28T13:22:01;7.90;71.00
13458;DHT22;6801;53.018;11.560;2023-02-28T13:24:43;8.00;69.10
13458;DHT22;6801;53.018;11.560;2023-02-28T13:27:25;8.00;68.70
13458;DHT22;6801;53.018;11.560;2023-02-28T13:29:58;8.00;69.30
13458;DHT22;6801;53.018;11.560;2023-02-28T13:32:35;8.10;69.60
13458;DHT22;6801;53.018;11.560;2023-02-28T13:38:24;8.10;67.40
13458;DHT22;6801;53.018;11.560;2023-02-28T13:44:01;8.30;69.70
13458;DHT22;6801;53.018;11.560;2023-02-28T13:46:29;8.30;70.40
13458;DHT22;6801;53.018;11.560;2023-02-28T13:48:56;8.40;69.80
13458;DHT22;6801;53.018;11.560;2023-02-28T13:51:45;8.30;70.40
13458;DHT22;6801;53.018;11.560;2023-02-28T13:54:27;8.40;71.20
13458;DHT22;6801;53.018;11.560;2023-02-28T13:57:07;8.40;70.70
13458;DHT22;6801;53.018;11.560;2023-02-28T13:59:46;8.40;70.70
13458;DHT22;6801;53.018;11.560;2023-02-28T14:02:35;8.50;70.30
13458;DHT22;6801;53.018;11.560;2023-02-28T14:05:14;8.50;69.70
13458;DHT22;6801;53.018;11.560;2023-02-28T14:07:45;8.50;69.60
13458;DHT22;6801;53.018;11.560;2023-02-28T14:10:24;8.60;69.60
13458;DHT22;6801;53.018;11.560;2023-02-28T14:13:01;8.60;69.60
13458;DHT22;6801;53.018;11.560;2023-02-28T14:15:39;8.60;69.40
13458;DHT22;6801;53.018;11.560;2023-02-28T14:18:16;8.60;69.70
13458;DHT22;6801;53.018;11.560;2023-02-28T14:20:45;8.70;69.50
13458;DHT22;6801;53.018;11.560;2023-02-28T14:23:20;8.80;69.40
13458;DHT22;6801;53.018;11.560;2023-02-28T14:25:58;8.80;69.20
13458;DHT22;6801;53.018;11.560;2023-02-28T14:28:50;8.80;69.30
13458;DHT22;6801;53.018;11.560;2023-02-28T14:31:25;8.90;66.90
13458;DHT22;6801;53.018;11.560;2023-02-28T14:34:22;8.90;66.20
13458;DHT22;6801;53.018;11.560;2023-02-28T14:36:53;8.90;65.80
13458;DHT22;6801;53.018;11.560;2023-02-28T14:39:22;8.80;67.40
13458;DHT22;6801;53.018;11.560;2023-02-28T14:41:52;8.80;68.00
13458;DHT22;6801;53.018;11.560;2023-02-28T14:44:21;8.90;68.00
13458;DHT22;6801;53.018;11.560;2023-02-28T14:46:51;8.80;65.00
13458;DHT22;6801;53.018;11.560;2023-02-28T14:49:27;8.80;65.20
13458;DHT22;6801;53.018;11.560;2023-02-28T14:52:03;8.80;65.00
13458;DHT22;6801;53.018;11.560;2023-02-28T14:54:32;8.70;65.50
13458;DHT22;6801;53.018;11.560;2023-02-28T14:57:00;8.70;66.80
13458;DHT22;6801;53.018;11.560;2023-02-28T14:59:29;8.80;66.40
13458;DHT22;6801;53.018;11.560;2023-02-28T15:02:16;8.80;65.40
13458;DHT22;6801;53.018;11.560;2023-02-28T15:04:52;8.80;63.70
13458;DHT22;6801;53.018;11.560;2023-02-28T15:07:20;8.80;64.50
13458;DHT22;6801;53.018;11.560;2023-02-28T15:10:13;8.70;65.10
13458;DHT22;6801;53.018;11.560;2023-02-28T15:12:48;8.80;65.40
13458;DHT22;6801;53.018;11.560;2023-02-28T15:15:17;8.80;65.50
13458;DHT22;6801;53.018;11.560;2023-02-28T15:17:46;8.90;64.50
13458;DHT22;6801;53.018;11.560;2023-02-28T15:20:16;8.80;63.60
13458;DHT22;6801;53.018;11.560;2023-02-28T15:22:46;8.80;63.90
13458;DHT22;6801;53.018;11.560;2023-02-28T15:25:19;8.80;64.50
13458;DHT22;6801;53.018;11.560;2023-02-28T15:27:50;8.90;63.50
13458;DHT22;6801;53.018;11.560;2023-02-28T15:30:20;8.80;63.60
13458;DHT22;6801;53.018;11.560;2023-02-28T15:33:03;8.80;64.50
13458;DHT22;6801;53.018;11.560;2023-02-28T15:35:32;8.80;64.30
13458;DHT22;6801;53.018;11.560;2023-02-28T15:38:02;8.80;64.40
13458;DHT22;6801;53.018;11.560;2023-02-28T15:40:33;8.80;64.40
13458;DHT22;6801;53.018;11.560;2023-02-28T15:43:06;8.80;64.50
13458;DHT22;6801;53.018;11.560;2023-02-28T15:45:37;8.80;64.30
13458;DHT22;6801;53.018;11.560;2023-02-28T15:48:16;8.70;64.10
13458;DHT22;6801;53.018;11.560;2023-02-28T15:50:44;8.70;64.40
13458;DHT22;6801;53.018;11.560;2023-02-28T15:53:14;8.70;64.80
13458;DHT22;6801;53.018;11.560;2023-02-28T15:55:41;8.70;64.80
13458;DHT22;6801;53.018;11.560;2023-02-28T15:58:11;8.70;65.00
13458;DHT22;6801;53.018;11.560;2023-02-28T16:00:39;8.70;65.80